Time;durP1;ratioP1;P1;durP2;ratioP2;P2;SDS_P1;SDS_P2;PMS_P1;PMS_P2;Temp;Humidity;BMP_temperature;BMP_pressure;BME280_temperature;BME280_humidity;BME280_pressure;Samples;Min_cycle;Max_cycle;Signal;HPM_P1;HPM_P2
2023/03/09 06:12:55;;;;;;;18.92;10.75;;;;;;;7.35;100.00;97232.00;5094323;27;20108;-65
2023/03/09 06:15:20;;;;;;;17.58;10.88;;;;;;;7.34;100.00;97233.00;5029414;28;20041;-64
2023/03/09 06:17:46;;;;;;;17.75;11.73;;;;;;;6.96;100.00;97198.13;5017288;28;20184;-64
2023/03/09 06:20:11;;;;;;;21.60;11.13;;;;;;;7.13;100.00;97220.47;5037469;28;20083;-66
2023/03/09 06:22:39;;;;;;;20.02;10.98;;;;;;;7.10;100.00;97213.03;5037531;28;20116;-65
2023/03/09 06:25:05;;;;;;;18.05;10.73;;;;;;;7.04;100.00;97206.72;5009810;28;20080;-65
2023/03/09 06:27:33;;;;;;;16.92;10.13;;;;;;;7.00;100.00;97207.19;5033437;28;20039;-65
2023/03/09 06:29:59;;;;;;;18.85;10.80;;;;;;;7.12;100.00;97222.25;5020657;28;20029;-65
2023/03/09 06:32:24;;;;;;;19.27;10.90;;;;;;;7.04;100.00;97222.22;5003565;28;20048;-66
2023/03/09 06:34:50;;;;;;;17.13;11.27;;;;;;;7.10;100.00;97239.69;5017034;28;20017;-65
2023/03/09 06:37:15;;;;;;;19.75;11.35;;;;;;;7.02;100.00;97234.47;4973321;28;20092;-65
2023/03/09 06:39:40;;;;;;;19.35;10.90;;;;;;;7.11;100.00;97253.44;5017517;28;20026;-67
2023/03/09 06:42:06;;;;;;;19.65;10.38;;;;;;;7.09;100.00;97235.47;5021808;28;20653;-65
2023/03/09 06:44:31;;;;;;;17.77;10.60;;;;;;;6.88;100.00;97199.72;5020738;28;20045;-66
2023/03/09 06:46:57;;;;;;;17.02;9.13;;;;;;;7.18;100.00;97244.09;5004049;28;20024;-65
2023/03/09 06:49:22;;;;;;;16.40;9.52;;;;;;;7.15;100.00;97244.38;5004768;28;20462;-65
2023/03/09 06:51:47;;;;;;;21.90;10.63;;;;;;;7.11;100.00;97233.56;5014902;28;20029;-65
2023/03/09 06:54:14;;;;;;;19.95;11.43;;;;;;;7.15;100.00;97241.00;5038034;28;20029;-65
2023/03/09 06:56:39;;;;;;;21.25;11.10;;;;;;;7.19;100.00;97250.88;5014354;28;20065;-65
2023/03/09 06:59:05;;;;;;;17.23;11.07;;;;;;;6.98;100.00;97211.72;5037258;28;20052;-65
2023/03/09 07:01:30;;;;;;;19.33;10.98;;;;;;;7.14;100.00;97245.38;5010322;28;20040;-65
2023/03/09 07:03:56;;;;;;;17.90;11.40;;;;;;;7.31;100.00;97264.31;5021074;28;20053;-65
2023/03/09 07:06:22;;;;;;;16.05;10.63;;;;;;;7.28;100.00;97268.03;5035216;28;20040;-65
2023/03/09 07:08:47;;;;;;;16.80;10.52;;;;;;;7.27;100.00;97274.16;5024922;28;20131;-65
2023/03/09 07:11:13;;;;;;;15.35;9.13;;;;;;;7.26;100.00;97259.59;5021585;28;20047;-65
2023/03/09 07:13:38;;;;;;;20.45;10.93;;;;;;;7.24;100.00;97263.31;5036087;28;20048;-65
2023/03/09 07:16:04;;;;;;;16.83;10.10;;;;;;;7.36;100.00;97250.94;5019900;28;20115;-66
2023/03/09 07:18:30;;;;;;;19.98;11.38;;;;;;;7.34;100.00;97258.00;5042928;28;20037;-65
2023/03/09 07:20:59;;;;;;;19.25;10.82;;;;;;;7.31;100.00;97248.81;5075636;28;20198;-64
2023/03/09 07:23:24;;;;;;;17.92;11.10;;;;;;;7.28;100.00;97256.88;5027448;28;20084;-65
2023/03/09 07:25:50;;;;;;;18.13;10.65;;;;;;;7.26;100.00;97271.72;5029803;28;20033;-66
2023/03/09 07:28:15;;;;;;;20.05;10.95;;;;;;;7.30;100.00;97262.69;5003653;28;20510;-66
2023/03/09 07:30:41;;;;;;;17.52;10.05;;;;;;;7.11;100.00;97219.81;5048860;28;20809;-65
2023/03/09 07:33:06;;;;;;;17.83;10.48;;;;;;;7.36;100.00;97248.34;5040550;28;20036;-65
2023/03/09 07:35:32;;;;;;;18.20;10.18;;;;;;;7.39;100.00;97251.44;5052743;28;20032;-65
2023/03/09 07:37:57;;;;;;;17.83;10.38;;;;;;;7.39;100.00;97266.13;5020196;28;20445;-66
2023/03/09 07:40:22;;;;;;;16.23;10.55;;;;;;;7.43;100.00;97263.06;5034770;28;20021;-66
2023/03/09 07:42:50;;;;;;;18.80;10.25;;;;;;;7.48;100.00;97254.81;5044161;28;20556;-65
2023/03/09 07:59:20;;;;;;;18.52;10.10;;;;;;;7.43;100.00;97267.41;5017442;28;20039;-67
2023/03/09 08:22:16;;;;;;;17.95;10.88;;;;;;;7.41;100.00;97253.84;5028977;28;20171;-64
2023/03/09 08:24:42;;;;;;;16.50;10.38;;;;;;;7.56;100.00;97283.31;5024324;28;20075;-64
2023/03/09 08:27:09;;;;;;;20.13;11.00;;;;;;;7.28;100.00;97252.53;5023655;28;20194;-64
2023/03/09 08:29:41;;;;;;;19.38;11.50;;;;;;;7.46;100.00;97291.19;5023793;28;20074;-65
2023/03/09 08:39:21;;;;;;;15.75;9.68;;;;;;;7.36;100.00;97271.63;5036647;28;20260;-65
2023/03/09 08:41:47;;;;;;;16.83;10.00;;;;;;;7.44;100.00;97269.84;5001358;28;20400;-65
2023/03/09 08:44:38;;;;;;;37.88;19.42;;;;;;;7.48;100.00;97278.94;5015123;28;20578;-65
2023/03/09 08:47:07;;;;;;;18.90;10.93;;;;;;;7.54;100.00;97280.06;5029643;28;20034;-66
2023/03/09 08:49:40;;;;;;;19.52;11.18;;;;;;;7.60;100.00;97284.59;5022501;28;20036;-64
2023/03/09 08:52:10;;;;;;;24.27;12.82;;;;;;;7.65;100.00;97284.16;5019411;28;20712;-65
2023/03/09 08:54:38;;;;;;;22.40;12.50;;;;;;;7.64;100.00;97279.94;5024527;28;20028;-65
2023/03/09 08:57:04;;;;;;;18.75;11.02;;;;;;;7.59;100.00;97287.34;5030943;28;20032;-65
2023/03/09 08:59:31;;;;;;;18.92;11.02;;;;;;;7.63;100.00;97278.28;5038022;28;20813;-65
2023/03/09 09:02:03;;;;;;;18.00;10.23;;;;;;;7.67;100.00;97277.03;5021573;28;20051;-65
2023/03/09 09:04:34;;;;;;;17.20;10.10;;;;;;;7.75;100.00;97277.03;5034081;28;20040;-64
2023/03/09 09:07:04;;;;;;;14.98;9.75;;;;;;;7.66;100.00;97267.63;5041764;28;20127;-64
2023/03/09 09:09:30;;;;;;;19.75;11.20;;;;;;;7.68;100.00;97269.13;5039699;28;20085;-65
2023/03/09 09:12:02;;;;;;;58.00;22.63;;;;;;;7.64;100.00;97272.16;5033702;28;20929;-65
2023/03/09 09:14:31;;;;;;;41.20;18.80;;;;;;;7.65;100.00;97277.19;5006702;28;20066;-65
2023/03/09 09:17:20;;;;;;;38.50;17.23;;;;;;;7.71;100.00;97275.75;5018833;28;20095;-65
2023/03/09 09:20:16;;;;;;;29.05;14.20;;;;;;;7.76;100.00;97281.25;5045696;28;20032;-65
2023/03/09 09:22:53;;;;;;;28.40;12.63;;;;;;;7.72;100.00;97273.94;4996288;28;20050;-65
2023/03/09 09:25:19;;;;;;;26.10;13.20;;;;;;;7.80;100.00;97286.91;4997231;28;20041;-65
2023/03/09 09:27:49;;;;;;;27.33;13.60;;;;;;;7.80;100.00;97273.97;4998066;28;20082;-65
2023/03/09 09:30:18;;;;;;;20.77;11.18;;;;;;;7.88;100.00;97279.97;5032274;28;20032;-65
2023/03/09 09:32:50;;;;;;;19.08;10.32;;;;;;;7.97;100.00;97295.50;5033576;28;20124;-65
2023/03/09 09:35:30;;;;;;;20.52;12.52;;;;;;;8.01;100.00;97301.97;5032636;28;20694;-65
2023/03/09 09:38:02;;;;;;;17.77;10.32;;;;;;;8.14;100.00;97301.50;5024775;28;20045;-65
2023/03/09 09:40:36;;;;;;;17.38;9.88;;;;;;;8.40;100.00;97296.97;5017678;28;20038;-65
2023/03/09 09:43:04;;;;;;;15.65;9.05;;;;;;;8.72;100.00;97310.88;5030008;28;20030;-64
2023/03/09 09:45:37;;;;;;;13.32;8.75;;;;;;;8.98;100.00;97302.91;5026455;28;20076;-65
2023/03/09 09:48:34;;;;;;;13.93;8.48;;;;;;;9.00;100.00;97302.75;5005105;28;20159;-65
2023/03/09 09:51:21;;;;;;;15.60;9.25;;;;;;;9.12;100.00;97300.59;5007581;28;20041;-66
2023/03/09 09:54:07;;;;;;;14.95;8.77;;;;;;;9.32;100.00;97294.03;5011750;28;20521;-65
2023/03/09 09:56:58;;;;;;;14.02;7.88;;;;;;;9.52;100.00;97286.63;4998953;28;20049;-64
2023/03/09 09:59:48;;;;;;;14.02;8.70;;;;;;;9.60;100.00;97289.19;5002513;28;20044;-66
2023/03/09 10:03:00;;;;;;;13.73;7.85;;;;;;;9.62;100.00;97289.03;4996181;28;20052;-64
2023/03/09 10:05:31;;;;;;;12.20;6.80;;;;;;;9.66;99.55;97290.31;5018161;28;20208;-65
2023/03/09 10:08:21;;;;;;;9.85;5.82;;;;;;;9.76;98.11;97290.88;5025985;28;20037;-64
2023/03/09 10:10:51;;;;;;;11.93;6.38;;;;;;;9.86;95.80;97293.25;5039065;28;20490;-64
2023/03/09 10:13:43;;;;;;;12.95;8.50;;;;;;;10.09;98.06;97288.06;5011137;28;20042;-65
2023/03/09 10:16:21;;;;;;;11.77;6.50;;;;;;;10.09;96.38;97301.03;5016395;28;20150;-65
2023/03/09 10:19:03;;;;;;;11.40;6.07;;;;;;;10.04;96.33;97264.41;5002893;28;20092;-65
2023/03/09 10:22:19;;;;;;;13.18;6.18;;;;;;;10.34;92.81;97304.28;5008594;28;20057;-65
2023/03/09 10:24:49;;;;;;;13.32;6.25;;;;;;;10.35;96.18;97300.72;4917109;29;20055;-64
2023/03/09 10:27:52;;;;;;;10.60;6.22;;;;;;;10.33;95.10;97301.88;4985915;28;20033;-64
2023/03/09 10:30:48;;;;;;;13.52;6.05;;;;;;;10.33;99.80;97310.50;5022324;28;20034;-65
2023/03/09 10:33:40;;;;;;;12.40;7.40;;;;;;;10.09;98.81;97290.66;5005631;28;20056;-65
2023/03/09 10:36:16;;;;;;;15.73;8.10;;;;;;;10.00;98.95;97266.56;5019749;28;20041;-64
2023/03/09 10:38:42;;;;;;;14.35;8.57;;;;;;;10.17;98.07;97293.19;5007547;28;20025;-64
2023/03/09 10:41:17;;;;;;;11.88;7.78;;;;;;;10.31;96.59;97290.84;5000784;28;20029;-64
2023/03/09 10:43:47;;;;;;;13.55;8.40;;;;;;;10.27;99.29;97279.97;5007329;28;20656;-64
2023/03/09 10:46:24;;;;;;;15.05;8.75;;;;;;;10.43;99.38;97279.06;5024251;28;20699;-63
2023/03/09 10:49:11;;;;;;;15.35;8.27;;;;;;;10.68;98.63;97278.84;5000643;28;20056;-64
2023/03/09 10:51:53;;;;;;;15.38;8.75;;;;;;;10.60;98.49;97284.91;5013181;28;20052;-64
2023/03/09 10:54:32;;;;;;;11.25;7.60;;;;;;;10.52;96.07;97259.81;4998527;28;20045;-65
2023/03/09 10:57:00;;;;;;;11.20;7.83;;;;;;;10.54;96.93;97275.22;4992164;28;20055;-64
2023/03/09 10:59:30;;;;;;;13.77;7.88;;;;;;;10.53;97.64;97281.38;5001402;28;20087;-64
2023/03/09 11:02:02;;;;;;;12.68;8.40;;;;;;;10.54;96.03;97276.03;5004660;28;20041;-67
2023/03/09 11:04:40;;;;;;;16.67;8.10;;;;;;;10.43;97.04;97237.47;5005794;28;20037;-66
2023/03/09 11:07:29;;;;;;;13.80;9.38;;;;;;;10.36;100.00;97262.56;5010708;28;20029;-64
2023/03/09 11:10:28;;;;;;;15.00;8.57;;;;;;;10.61;98.15;97268.34;4994229;28;20045;-65
2023/03/09 11:13:02;;;;;;;13.75;7.60;;;;;;;10.58;96.13;97229.69;4997190;28;20064;-66
2023/03/09 11:15:59;;;;;;;11.65;7.80;;;;;;;10.66;97.53;97272.97;5007910;28;20037;-63
2023/03/09 11:18:32;;;;;;;12.65;7.97;;;;;;;10.67;97.17;97272.00;5017013;28;20092;-64
2023/03/09 11:21:02;;;;;;;14.35;8.32;;;;;;;10.44;97.08;97241.69;5026477;28;20381;-64
2023/03/09 11:23:43;;;;;;;14.90;7.68;;;;;;;10.53;94.47;97237.22;5056216;28;20044;-64
2023/03/09 11:26:35;;;;;;;11.18;6.93;;;;;;;11.01;88.25;97271.50;5028138;28;20044;-63
2023/03/09 11:29:02;;;;;;;10.90;6.72;;;;;;;11.02;87.53;97267.88;5033245;28;20151;-63
2023/03/09 11:31:35;;;;;;;11.93;7.10;;;;;;;11.08;87.30;97264.59;5046840;28;20809;-64
2023/03/09 11:34:08;;;;;;;10.65;5.82;;;;;;;11.14;86.23;97268.25;5038255;28;20437;-68
2023/03/09 11:37:03;;;;;;;10.05;6.30;;;;;;;11.34;85.96;97260.69;5028830;28;20036;-64
2023/03/09 11:39:45;;;;;;;9.85;6.40;;;;;;;11.44;84.15;97257.78;5027657;28;20206;-64
2023/03/09 11:42:21;;;;;;;9.40;5.78;;;;;;;11.32;84.53;97262.66;5055201;28;20055;-63
2023/03/09 11:44:51;;;;;;;11.45;6.50;;;;;;;11.41;85.01;97264.19;5059613;28;20046;-64
2023/03/09 11:47:57;;;;;;;11.40;6.05;;;;;;;11.44;85.65;97255.19;5023182;28;20036;-64
2023/03/09 11:50:29;;;;;;;10.93;5.85;;;;;;;11.54;84.80;97253.09;4998630;28;20048;-64
2023/03/09 11:53:49;;;;;;;9.48;5.57;;;;;;;11.70;84.73;97254.66;5024162;28;20517;-63
2023/03/09 11:56:25;;;;;;;;;;;;;;;11.84;86.03;97256.41;5030276;28;20068;-63
2023/03/09 11:59:38;;;;;;;9.43;4.90;;;;;;;11.85;83.23;97254.63;5032387;28;19920;-62
2023/03/09 12:02:35;;;;;;;8.80;5.78;;;;;;;11.47;83.99;97197.56;5074054;28;20580;-63
2023/03/09 12:05:32;;;;;;;10.95;5.47;;;;;;;11.85;81.94;97234.59;5039998;28;20052;-64
2023/03/09 12:08:06;;;;;;;11.75;5.40;;;;;;;11.76;85.24;97238.31;5016510;28;20052;-63
2023/03/09 12:10:40;;;;;;;11.20;5.70;;;;;;;11.73;88.43;97231.66;5033174;28;20097;-62
2023/03/09 12:13:56;;;;;;;10.73;5.70;;;;;;;11.64;85.97;97224.16;5018607;28;20040;-63
2023/03/09 12:16:44;;;;;;;10.48;5.65;;;;;;;11.90;82.78;97224.44;4983080;28;20041;-64
2023/03/09 12:19:10;;;;;;;9.40;5.63;;;;;;;12.03;82.62;97220.31;5017640;28;20483;-63
2023/03/09 12:21:45;;;;;;;9.68;5.63;;;;;;;12.03;80.46;97202.09;5050461;28;20507;-63
2023/03/09 12:24:56;;;;;;;10.45;5.40;;;;;;;12.20;80.64;97202.66;4995141;28;20069;-63
2023/03/09 12:27:31;;;;;;;10.70;5.25;;;;;;;12.29;82.26;97201.50;5022015;28;20049;-63
2023/03/09 12:30:18;;;;;;;14.85;5.95;;;;;;;12.32;80.94;97211.56;5002867;28;20128;-63
2023/03/09 12:33:04;;;;;;;10.70;5.82;;;;;;;12.30;82.32;97201.31;4997403;28;20103;-64
2023/03/09 12:35:54;;;;;;;9.77;5.70;;;;;;;12.49;79.50;97196.41;5020758;28;20051;-62
2023/03/09 12:38:24;;;;;;;;;;;;;;;12.68;81.50;97189.69;5044001;28;20128;-63
2023/03/09 12:40:57;;;;;;;9.63;5.57;;;;;;;12.71;81.39;97189.31;5037637;28;19917;-63
2023/03/09 12:43:33;;;;;;;9.23;5.82;;;;;;;12.70;79.56;97195.53;5004130;28;20101;-64
2023/03/09 12:46:37;;;;;;;9.60;5.75;;;;;;;13.01;75.92;97186.44;5005728;28;20040;-62
2023/03/09 12:49:20;;;;;;;9.77;6.07;;;;;;;13.15;77.51;97182.88;5005684;28;20041;-65
2023/03/09 12:51:55;;;;;;;10.55;5.60;;;;;;;13.08;80.83;97185.47;5002456;28;20100;-64
2023/03/09 12:54:30;;;;;;;13.98;6.53;;;;;;;13.06;77.40;97171.81;5029214;28;20021;-63
2023/03/09 12:56:56;;;;;;;11.57;6.50;;;;;;;13.13;77.69;97176.25;5003927;28;20037;-63
2023/03/09 12:59:27;;;;;;;10.48;5.90;;;;;;;13.25;76.47;97175.50;4996759;28;20691;-63
2023/03/09 13:02:26;;;;;;;12.45;6.40;;;;;;;13.21;77.17;97169.03;5025824;28;20057;-64
2023/03/09 13:05:54;;;;;;;11.05;6.22;;;;;;;13.34;73.88;97172.72;5029654;28;20025;-63
2023/03/09 13:08:39;;;;;;;12.60;5.95;;;;;;;13.96;70.64;97162.94;4972323;28;20149;-64
2023/03/09 13:11:31;;;;;;;9.73;5.38;;;;;;;13.97;70.31;97154.91;4963370;28;20033;-63
2023/03/09 13:14:02;;;;;;;13.27;6.50;;;;;;;13.96;71.35;97142.88;5007822;28;20051;-63
2023/03/09 13:16:31;;;;;;;10.40;5.80;;;;;;;13.98;66.73;97140.03;5006754;28;20064;-63
2023/03/09 13:21:47;;;;;;;13.57;5.68;;;;;;;14.17;64.70;97112.28;5048761;28;20131;-62
2023/03/09 13:24:40;;;;;;;9.65;5.05;;;;;;;14.44;62.44;97144.41;5045780;28;20044;-63
2023/03/09 13:27:23;;;;;;;9.98;4.82;;;;;;;14.62;60.67;97146.41;5039614;28;20045;-63
2023/03/09 13:30:24;;;;;;;9.85;4.40;;;;;;;14.56;60.27;97134.09;5073245;28;20040;-63
2023/03/09 13:33:05;;;;;;;9.07;4.47;;;;;;;14.73;59.32;97134.47;5042463;28;20111;-62
2023/03/09 13:35:38;;;;;;;10.50;5.55;;;;;;;14.82;60.50;97132.41;5039360;28;20530;-63
2023/03/09 13:38:06;;;;;;;9.68;4.80;;;;;;;14.64;60.15;97109.53;5028672;28;20538;-62
2023/03/09 13:40:37;;;;;;;10.38;4.55;;;;;;;15.03;59.08;97136.56;5034038;28;20053;-62
2023/03/09 13:43:19;;;;;;;8.05;4.45;;;;;;;14.98;57.56;97124.88;5050107;28;20028;-63
2023/03/09 13:46:28;;;;;;;8.10;4.35;;;;;;;15.14;56.09;97128.84;5024953;28;20118;-63
2023/03/09 13:49:02;;;;;;;;;;;;;;;15.17;55.97;97128.44;5012425;28;20460;-64
2023/03/09 13:52:13;;;;;;;8.38;4.40;;;;;;;15.35;55.42;97121.66;5053377;28;20376;-64
2023/03/09 13:54:54;;;;;;;9.15;4.45;;;;;;;15.38;54.47;97119.44;5035607;28;20173;-63
2023/03/09 13:57:32;;;;;;;9.88;4.60;;;;;;;15.31;54.75;97110.81;5040460;28;20044;-61
2023/03/09 14:00:22;;;;;;;10.27;4.45;;;;;;;15.23;54.79;97110.28;5047517;28;20047;-64
2023/03/09 14:03:44;;;;;;;7.10;3.75;;;;;;;15.06;55.42;97096.88;5056616;28;20483;-62
2023/03/09 14:06:43;;;;;;;8.02;4.15;;;;;;;15.22;55.19;97106.03;5058959;28;20099;-61
2023/03/09 14:09:32;;;;;;;9.93;4.45;;;;;;;15.37;54.94;97104.75;5045055;28;20040;-63
2023/03/09 14:11:59;;;;;;;10.88;4.57;;;;;;;15.45;55.63;97105.50;5059265;28;20036;-63
2023/03/09 14:14:33;;;;;;;9.85;4.70;;;;;;;15.55;55.73;97095.34;5056765;28;20037;-64
2023/03/09 14:17:16;;;;;;;10.00;4.70;;;;;;;15.61;53.86;97088.47;5029282;28;20113;-63
2023/03/09 14:19:43;;;;;;;8.48;4.55;;;;;;;15.36;53.82;97056.00;5042795;28;20052;-63
2023/03/09 14:22:18;;;;;;;9.15;4.57;;;;;;;15.62;53.61;97092.66;5028590;28;20037;-63
2023/03/09 14:24:47;;;;;;;8.07;4.38;;;;;;;15.41;53.35;97059.81;5056552;28;20032;-63
2023/03/09 14:27:23;;;;;;;7.90;4.13;;;;;;;15.63;52.26;97084.59;5052800;28;20124;-64
2023/03/09 14:29:54;;;;;;;8.13;3.80;;;;;;;15.54;52.72;97063.09;5045442;28;20138;-63
2023/03/09 14:32:30;;;;;;;9.80;4.00;;;;;;;15.68;52.62;97078.72;5022013;28;20134;-64
2023/03/09 14:35:59;;;;;;;7.43;3.90;;;;;;;15.65;53.33;97074.72;5028523;28;20035;-63
2023/03/09 14:38:30;;;;;;;8.02;3.97;;;;;;;15.39;52.80;97041.69;5003229;28;20061;-63
2023/03/09 14:41:16;;;;;;;9.32;4.03;;;;;;;15.65;53.00;97079.94;5006810;28;20050;-63
2023/03/09 14:43:43;;;;;;;9.73;4.30;;;;;;;15.46;55.08;97046.84;4970536;28;20129;-63
2023/03/09 14:46:27;;;;;;;10.07;4.10;;;;;;;15.40;56.64;97061.59;4987349;28;20040;-63
2023/03/09 14:49:07;;;;;;;9.25;4.38;;;;;;;15.47;54.51;97059.75;4978964;28;20053;-66
2023/03/09 14:51:41;;;;;;;8.98;4.57;;;;;;;15.38;55.54;97055.78;4986135;28;20035;-62
2023/03/09 14:54:13;;;;;;;8.80;4.05;;;;;;;15.33;56.87;97055.59;4970035;28;20057;-63
2023/03/09 14:56:42;;;;;;;10.25;4.72;;;;;;;15.16;55.92;97024.72;4970091;28;20294;-63
2023/03/09 14:59:21;;;;;;;8.70;4.20;;;;;;;15.28;54.53;97052.84;4985607;28;20884;-63
2023/03/09 15:01:54;;;;;;;7.97;4.38;;;;;;;15.42;54.62;97056.94;4972047;28;20057;-63
2023/03/09 15:04:24;;;;;;;9.65;5.07;;;;;;;15.41;54.50;97049.34;4968831;28;20301;-64
2023/03/09 15:06:51;;;;;;;10.75;4.88;;;;;;;15.45;54.78;97038.19;4984192;28;20050;-64
2023/03/09 15:09:18;;;;;;;9.38;4.10;;;;;;;15.47;53.72;97030.13;5008213;28;20064;-63
2023/03/09 15:11:49;;;;;;;8.07;4.13;;;;;;;15.52;53.42;97033.72;5053538;28;20789;-63
2023/03/09 15:14:45;;;;;;;8.40;4.30;;;;;;;15.59;51.67;97025.81;5040194;28;20127;-63
2023/03/09 15:17:20;;;;;;;8.88;4.15;;;;;;;15.37;51.99;96962.53;5040423;28;20104;-63
2023/03/09 15:19:50;;;;;;;7.70;3.65;;;;;;;15.51;56.86;97023.44;5058484;28;20110;-63
2023/03/09 15:22:26;;;;;;;7.80;4.00;;;;;;;14.74;62.28;97020.97;5027146;28;20051;-63
2023/03/09 15:24:58;;;;;;;9.13;4.75;;;;;;;14.30;62.45;96978.13;5025076;28;21161;-63
2023/03/09 15:27:30;;;;;;;9.50;3.85;;;;;;;14.36;64.24;97014.66;5054017;28;20068;-65
2023/03/09 15:32:58;;;;;;;8.02;3.65;;;;;;;14.09;64.46;97006.16;5045273;28;20039;-63
2023/03/09 15:35:49;;;;;;;8.05;3.63;;;;;;;14.21;63.62;97009.69;5034246;28;20037;-63
2023/03/09 15:38:16;;;;;;;16.85;4.75;;;;;;;14.31;61.63;97005.84;5041523;28;20040;-63
2023/03/09 15:40:42;;;;;;;8.55;3.88;;;;;;;14.36;61.44;97006.03;5043185;28;20049;-64
2023/03/09 15:43:12;;;;;;;9.60;4.32;;;;;;;14.13;62.17;96970.75;5055337;28;20470;-63
2023/03/09 15:45:44;;;;;;;8.18;3.92;;;;;;;14.31;63.08;97004.06;5012710;28;20047;-64
2023/03/09 15:48:21;;;;;;;7.82;3.97;;;;;;;14.30;63.27;96999.03;5030613;28;20510;-63
2023/03/09 15:50:50;;;;;;;9.68;4.22;;;;;;;14.21;65.61;96990.59;5054480;28;20495;-62
2023/03/09 15:53:15;;;;;;;9.48;4.13;;;;;;;14.23;66.93;96999.03;5085652;28;20107;-62
2023/03/09 15:55:41;;;;;;;8.05;3.83;;;;;;;14.20;66.46;97004.69;5034451;28;20039;-63
2023/03/09 15:58:07;;;;;;;6.93;3.80;;;;;;;14.24;65.12;97008.50;5060809;28;20048;-63
2023/03/09 16:00:33;;;;;;;9.60;4.10;;;;;;;13.85;66.48;97002.38;5082848;28;20037;-63
2023/03/09 16:03:03;;;;;;;8.73;4.10;;;;;;;13.44;69.13;97000.84;5055232;28;20031;-62
2023/03/09 16:05:28;;;;;;;8.90;4.22;;;;;;;13.03;71.74;97005.22;5042788;28;20033;-63
2023/03/09 16:07:54;;;;;;;9.68;4.47;;;;;;;12.93;73.27;97002.19;5068151;28;20494;-65
2023/03/09 16:10:19;;;;;;;8.73;3.90;;;;;;;12.72;73.29;97005.75;5030751;28;20144;-63
2023/03/09 16:12:45;;;;;;;9.55;4.10;;;;;;;12.80;72.03;96989.16;5030528;28;20078;-63
2023/03/09 16:15:11;;;;;;;7.22;4.10;;;;;;;12.80;72.16;96995.16;5023516;28;20039;-63
2023/03/09 16:17:36;;;;;;;7.97;4.18;;;;;;;12.66;70.98;96986.50;5060740;28;20024;-63
2023/03/09 16:20:03;;;;;;;8.15;4.22;;;;;;;12.79;70.94;97003.16;5023364;28;20127;-63
2023/03/09 16:22:29;;;;;;;8.82;3.83;;;;;;;12.55;70.75;96957.59;5062731;28;20505;-63
2023/03/09 16:24:54;;;;;;;8.02;3.97;;;;;;;12.79;70.91;97003.97;5051977;28;20032;-64
2023/03/09 16:27:19;;;;;;;7.07;3.85;;;;;;;12.80;70.50;97004.78;5037596;28;20817;-63
2023/03/09 16:29:45;;;;;;;11.00;5.25;;;;;;;12.86;69.59;97006.59;5033923;28;20067;-63
2023/03/09 16:32:10;;;;;;;8.73;4.50;;;;;;;13.00;67.39;97005.63;5038377;28;20024;-64
2023/03/09 16:34:35;;;;;;;6.05;3.58;;;;;;;13.14;66.02;97005.63;5030579;28;20029;-62
2023/03/09 16:37:05;;;;;;;7.50;3.55;;;;;;;13.10;65.96;97004.41;5023237;28;20385;-63
2023/03/09 16:39:31;;;;;;;8.25;4.25;;;;;;;12.71;66.85;96962.44;5047335;28;20033;-64
2023/03/09 16:41:57;;;;;;;8.27;4.68;;;;;;;12.93;66.97;97002.19;5040095;28;20071;-63
2023/03/09 16:44:23;;;;;;;7.57;4.32;;;;;;;12.94;67.74;97010.81;5024886;28;20115;-64
2023/03/09 16:46:53;;;;;;;8.40;4.00;;;;;;;12.91;69.15;97014.63;5028314;28;20401;-64
2023/03/09 16:49:19;;;;;;;9.80;4.85;;;;;;;12.86;69.71;97014.44;5056490;28;20075;-63
2023/03/09 16:51:44;;;;;;;6.82;4.43;;;;;;;12.79;70.30;97011.78;5043548;28;21040;-65
2023/03/09 16:54:10;;;;;;;8.73;4.50;;;;;;;12.52;70.93;96976.22;5031034;28;20094;-63
2023/03/09 16:56:35;;;;;;;9.43;5.10;;;;;;;12.74;72.00;97019.44;5031139;28;20036;-63
2023/03/09 16:59:01;;;;;;;7.15;4.13;;;;;;;12.75;72.68;97028.03;5017511;28;20029;-64
2023/03/09 17:01:26;;;;;;;11.52;4.38;;;;;;;12.75;72.58;97030.66;5031533;28;20032;-63
2023/03/09 17:03:52;;;;;;;8.60;4.50;;;;;;;12.66;72.77;97025.59;5025561;28;20101;-64
2023/03/09 17:06:19;;;;;;;10.00;4.53;;;;;;;12.69;72.66;97027.03;5035310;28;20121;-63
2023/03/09 17:08:45;;;;;;;7.90;4.15;;;;;;;12.42;72.54;96987.84;5070095;28;20031;-63
2023/03/09 17:11:13;;;;;;;9.50;5.10;;;;;;;12.68;72.26;97025.41;5047173;28;20315;-63
2023/03/09 17:13:43;;;;;;;8.30;5.25;;;;;;;12.66;72.43;97028.22;5034248;28;20353;-63
2023/03/09 17:16:09;;;;;;;11.35;5.38;;;;;;;12.66;72.43;97033.44;5061645;28;20127;-63
2023/03/09 17:18:35;;;;;;;10.48;4.90;;;;;;;12.61;72.09;97033.25;5023564;28;20371;-64
2023/03/09 17:21:00;;;;;;;10.35;5.10;;;;;;;12.54;70.54;97037.63;5030071;28;20032;-65
2023/03/09 17:23:27;;;;;;;9.10;4.50;;;;;;;12.68;68.57;97041.84;5039853;28;20047;-64
2023/03/09 17:25:53;;;;;;;10.20;4.25;;;;;;;12.74;67.68;97040.28;5040891;28;20059;-63
2023/03/09 17:28:18;;;;;;;11.18;4.43;;;;;;;12.67;66.07;97024.63;5025144;28;20471;-63
2023/03/09 17:30:44;;;;;;;9.10;4.13;;;;;;;12.85;65.46;97057.16;5028734;28;20064;-63
2023/03/09 17:33:09;;;;;;;9.13;4.10;;;;;;;12.68;64.83;97028.03;5028460;28;20399;-63
2023/03/09 17:35:39;;;;;;;8.98;4.18;;;;;;;12.92;64.23;97065.00;5013849;28;20036;-64
2023/03/09 17:38:06;;;;;;;9.20;4.38;;;;;;;12.97;63.54;97066.00;5062182;28;20540;-62
2023/03/09 17:40:31;;;;;;;9.40;4.80;;;;;;;13.02;63.42;97074.06;5028887;28;20537;-62
2023/03/09 17:42:57;;;;;;;11.73;4.60;;;;;;;13.02;63.94;97086.31;5019314;28;20127;-63
2023/03/09 17:45:22;;;;;;;11.65;5.53;;;;;;;12.97;64.24;97081.66;5039630;28;20031;-63
2023/03/09 17:47:47;;;;;;;10.75;5.07;;;;;;;12.97;64.40;97083.47;5019673;28;20498;-64
2023/03/09 17:50:13;;;;;;;10.02;4.72;;;;;;;12.92;64.37;97086.66;5047082;28;20058;-63
2023/03/09 17:52:38;;;;;;;10.18;5.30;;;;;;;12.88;64.64;97081.03;5021884;28;20025;-64
2023/03/09 17:55:04;;;;;;;10.48;4.55;;;;;;;12.84;64.84;97079.81;5051498;28;20390;-62
2023/03/09 17:57:30;;;;;;;8.57;4.53;;;;;;;12.80;65.11;97088.25;5040338;28;20523;-63
2023/03/09 17:59:55;;;;;;;9.35;5.07;;;;;;;12.70;65.39;97086.00;5054641;28;20025;-62
2023/03/09 18:02:20;;;;;;;12.15;4.75;;;;;;;12.46;65.14;97056.03;5050198;28;20025;-62
2023/03/09 18:04:46;;;;;;;8.80;4.93;;;;;;;12.50;65.05;97063.28;5025643;28;20024;-62
2023/03/09 18:07:13;;;;;;;11.00;4.80;;;;;;;12.65;65.57;97096.22;5040021;28;20372;-62
2023/03/09 18:09:39;;;;;;;11.50;4.60;;;;;;;12.44;65.87;97066.66;5051766;28;20364;-62
2023/03/09 18:12:05;;;;;;;7.90;4.43;;;;;;;12.33;65.63;97063.78;5030042;28;20043;-62
2023/03/09 18:14:30;;;;;;;11.35;5.03;;;;;;;12.54;65.80;97108.00;5050047;28;20051;-62
2023/03/09 18:16:55;;;;;;;10.50;4.80;;;;;;;12.55;65.74;97114.03;5027937;28;20107;-62
2023/03/09 18:19:21;;;;;;;10.38;5.47;;;;;;;12.34;65.83;97081.03;5035961;28;20035;-63
2023/03/09 18:21:47;;;;;;;10.85;5.22;;;;;;;12.56;66.03;97113.00;5053434;28;20041;-62
2023/03/09 18:24:12;;;;;;;8.63;4.72;;;;;;;12.55;65.53;97112.22;5056926;28;20120;-62
2023/03/09 18:26:38;;;;;;;11.88;4.90;;;;;;;12.54;65.33;97115.00;5023407;28;20032;-62
2023/03/09 18:29:04;;;;;;;10.50;4.80;;;;;;;12.51;66.16;97116.22;5052731;28;20098;-63
2023/03/09 18:31:31;;;;;;;10.18;5.32;;;;;;;12.49;66.21;97120.81;5070226;28;20533;-62
2023/03/09 18:33:57;;;;;;;8.82;5.07;;;;;;;12.23;66.21;97079.75;5039928;28;20034;-62
2023/03/09 18:36:23;;;;;;;9.30;5.03;;;;;;;12.40;66.38;97119.38;5029528;28;20033;-62
2023/03/09 18:38:49;;;;;;;10.05;5.15;;;;;;;12.29;67.50;97120.72;5016871;28;20073;-64
2023/03/09 18:41:15;;;;;;;13.55;5.32;;;;;;;12.02;68.50;97080.66;5035992;28;20056;-64
2023/03/09 18:43:41;;;;;;;10.52;5.80;;;;;;;12.31;67.74;97123.94;5032267;28;20029;-64
2023/03/09 18:46:07;;;;;;;10.75;5.68;;;;;;;12.19;69.62;97126.25;5034831;28;20588;-63
2023/03/09 18:48:33;;;;;;;11.02;5.57;;;;;;;12.16;70.21;97131.88;5012516;28;20560;-64
2023/03/09 18:50:59;;;;;;;11.57;6.15;;;;;;;12.09;70.04;97133.63;5032341;28;20582;-63
2023/03/09 18:53:27;;;;;;;10.50;5.80;;;;;;;11.59;71.42;97073.75;5015384;28;20028;-65
2023/03/09 18:55:54;;;;;;;12.48;6.43;;;;;;;11.85;72.08;97124.41;5058714;28;20441;-63
2023/03/09 18:58:20;;;;;;;10.52;5.82;;;;;;;11.62;72.45;97085.56;5053265;28;20052;-63